Time;durP1;ratioP1;P1;durP2;ratioP2;P2;SDS_P1;SDS_P2;PMS_P1;PMS_P2;Temp;Humidity;BMP_temperature;BMP_pressure;BME280_temperature;BME280_humidity;BME280_pressure;Samples;Min_cycle;Max_cycle;Signal;HPM_P1;HPM_P2
2023/01/14 01:33:23;;;;;;;3.55;2.38;;;;;;;7.77;nan;100116.13;4973949;28;20220;-85
2023/01/14 01:36:27;;;;;;;6.68;3.20;;;;;;;7.78;nan;100106.50;5028618;28;20437;-85
2023/01/14 01:39:26;;;;;;;;;;;;;;;;;;;;;
2023/01/14 01:43:00;;;;;;;4.18;2.22;;;;;;;7.68;nan;100112.16;5027918;28;20576;-85
2023/01/14 01:46:16;;;;;;;6.47;2.65;;;;;;;7.67;nan;100110.47;4999452;28;20192;-86
2023/01/14 01:49:41;;;;;;;8.65;2.58;;;;;;;7.69;nan;100107.78;5008439;28;20196;-85
2023/01/14 01:55:52;;;;;;;15.85;2.08;;;;;;;7.69;nan;100097.31;5023160;28;20596;-85
2023/01/14 02:01:23;;;;;;;6.45;2.35;;;;;;;7.75;nan;100082.22;5022158;28;20638;-85
2023/01/14 02:04:14;;;;;;;11.45;3.00;;;;;;;7.78;nan;100093.44;5006803;28;20182;-86
2023/01/14 02:30:31;;;;;;;;;;;;;;;;;;;;;
2023/01/14 02:41:14;;;;;;;6.72;2.20;;;;;;;7.88;nan;100060.72;4990668;28;20192;-85
2023/01/14 03:26:13;;;;;;;5.03;1.70;;;;;;;7.74;nan;99988.97;4985523;28;20625;-85
2023/01/14 03:30:17;;;;;;;;;;;;;;;;;;;;;
2023/01/14 03:33:57;;;;;;;5.60;2.08;;;;;;;7.71;nan;99994.34;4998459;23;20407;-85
2023/01/14 03:37:03;;;;;;;6.07;1.65;;;;;;;7.72;nan;99992.59;4997811;28;20204;-84
2023/01/14 03:39:43;;;;;;;2.95;2.50;;;;;;;7.80;nan;99984.41;5008981;28;20200;-85
2023/01/14 03:42:20;;;;;;;5.45;1.98;;;;;;;7.84;nan;99988.56;5017149;28;20211;-85
2023/01/14 03:44:57;;;;;;;5.22;1.60;;;;;;;7.86;nan;99989.38;5029874;28;20536;-84
2023/01/14 03:47:24;;;;;;;3.42;1.60;;;;;;;7.87;nan;99986.66;5030673;28;20298;-85
2023/01/14 03:49:51;;;;;;;7.30;1.83;;;;;;;7.89;nan;99981.38;5029174;28;20203;-86
2023/01/14 03:52:39;;;;;;;3.35;1.63;;;;;;;7.87;nan;99976.19;5029921;28;20203;-85
2023/01/14 03:55:15;;;;;;;5.75;2.45;;;;;;;7.88;nan;99974.41;5012768;28;20202;-84
2023/01/14 03:57:58;;;;;;;2.80;1.60;;;;;;;7.88;nan;99970.03;5028605;28;20194;-84
2023/01/14 04:00:35;;;;;;;8.43;2.05;;;;;;;7.91;nan;99966.44;5011002;28;20641;-85
2023/01/14 04:03:03;;;;;;;4.53;2.30;;;;;;;7.91;nan;99955.97;5015733;28;20258;-84
2023/01/14 04:05:29;;;;;;;8.10;3.17;;;;;;;7.97;nan;99953.94;5026058;28;20475;-85
2023/01/14 04:07:57;;;;;;;5.77;2.20;;;;;;;7.97;nan;99951.31;5007634;28;20294;-84
2023/01/14 04:10:23;;;;;;;5.13;1.55;;;;;;;8.00;nan;99944.25;5016945;28;20262;-85
2023/01/14 04:15:32;;;;;;;4.90;1.85;;;;;;;8.11;nan;99940.19;5007813;28;20213;-85
2023/01/14 04:17:58;;;;;;;5.67;1.90;;;;;;;8.13;nan;99940.97;5026475;28;20275;-85
2023/01/14 04:20:24;;;;;;;11.33;2.43;;;;;;;8.19;nan;99947.66;5007560;28;20557;-84
2023/01/14 04:22:49;;;;;;;2.40;1.47;;;;;;;8.19;nan;99935.44;5008141;28;20564;-84
2023/01/14 04:25:14;;;;;;;5.57;1.60;;;;;;;8.26;nan;99935.13;5024903;28;20196;-84
2023/01/14 04:27:40;;;;;;;12.40;1.80;;;;;;;8.31;nan;99935.75;5027520;28;20195;-84
2023/01/14 04:30:06;;;;;;;4.10;1.40;;;;;;;8.37;nan;99922.34;5025233;28;20191;-84
2023/01/14 04:32:32;;;;;;;2.80;1.60;;;;;;;8.42;nan;99928.25;5028768;28;20752;-84
2023/01/14 04:34:57;;;;;;;2.80;1.17;;;;;;;8.38;nan;99924.06;5028363;28;20273;-83
2023/01/14 04:37:22;;;;;;;6.10;1.60;;;;;;;8.45;nan;99919.38;5028205;28;20597;-84
2023/01/14 04:39:48;;;;;;;6.13;2.07;;;;;;;8.50;nan;99917.38;5003344;28;20188;-84
2023/01/14 04:42:50;;;;;;;6.03;1.47;;;;;;;8.54;nan;99917.16;4989224;23;20233;-84
2023/01/14 04:48:46;;;;;;;6.68;1.92;;;;;;;8.55;nan;99915.38;4969735;28;20303;-84
2023/01/14 04:51:20;;;;;;;6.03;1.75;;;;;;;8.53;nan;99907.63;4985019;28;20209;-84
2023/01/14 04:54:15;;;;;;;3.80;1.77;;;;;;;8.52;nan;99907.69;4987509;28;20362;-83
2023/01/14 04:57:06;;;;;;;20.30;2.25;;;;;;;8.51;nan;99913.88;4968353;28;20212;-84
2023/01/14 04:59:46;;;;;;;4.47;1.88;;;;;;;8.52;nan;99916.38;4970522;28;20738;-84
2023/01/14 05:02:30;;;;;;;4.72;1.63;;;;;;;8.50;nan;99910.38;4970849;28;20307;-84
2023/01/14 05:05:09;;;;;;;5.90;1.90;;;;;;;8.51;nan;99917.31;4971313;28;20474;-84
2023/01/14 05:07:55;;;;;;;9.15;1.95;;;;;;;8.51;nan;99913.88;4969510;28;20185;-84
2023/01/14 05:11:13;;;;;;;;;;;;;;;;;;;;;
2023/01/14 05:14:25;;;;;;;;;;;;;;;;;;;;;
2023/01/14 05:17:39;;;;;;;8.18;4.35;;;;;;;8.53;nan;99898.91;4968930;28;20196;-84
2023/01/14 05:21:24;;;;;;;;;;;;;;;;;;;;;
2023/01/14 05:35:21;;;;;;;3.42;1.20;;;;;;;8.40;nan;99881.22;4967015;28;20268;-83
2023/01/14 05:38:20;;;;;;;4.22;1.65;;;;;;;8.38;nan;99874.34;4960983;28;20379;-83
2023/01/14 05:52:49;;;;;;;6.25;2.25;;;;;;;8.30;nan;99866.03;4892850;29;20232;-84
2023/01/14 05:56:44;;;;;;;3.88;1.35;;;;;;;8.27;nan;99869.63;4891813;29;20538;-83
2023/01/14 05:59:41;;;;;;;4.05;1.23;;;;;;;8.29;nan;99864.31;4876986;29;21147;-82
2023/01/14 06:11:21;;;;;;;3.63;1.25;;;;;;;8.36;nan;99855.22;4972602;28;20206;-82
2023/01/14 06:14:10;;;;;;;3.85;1.52;;;;;;;8.40;nan;99852.41;5018566;23;20239;-82
2023/01/14 06:16:52;;;;;;;1.95;1.10;;;;;;;8.41;nan;99856.72;5012586;28;20203;-82
2023/01/14 06:19:58;;;;;;;6.18;1.60;;;;;;;8.45;nan;99844.31;5013000;28;20222;-82
2023/01/14 06:23:16;;;;;;;8.13;2.17;;;;;;;8.51;nan;99853.66;5021406;23;20229;-82
2023/01/14 06:26:47;;;;;;;;;;;;;;;;;;;;;
2023/01/14 06:29:56;;;;;;;1.88;1.30;;;;;;;8.54;nan;99843.88;5007567;28;20208;-82
2023/01/14 06:33:44;;;;;;;4.40;1.20;;;;;;;8.57;nan;99838.47;4998829;28;20216;-82
2023/01/14 06:40:41;;;;;;;3.90;2.20;;;;;;;8.58;nan;99824.44;5013775;28;20229;-82
2023/01/14 06:43:44;;;;;;;;;;;;;;;;;;;;;
2023/01/14 06:46:39;;;;;;;3.55;1.40;;;;;;;8.56;nan;99823.69;5001333;28;20737;-82
2023/01/14 06:49:15;;;;;;;9.05;1.92;;;;;;;8.56;nan;99818.44;5026400;28;20204;-82
2023/01/14 06:52:25;;;;;;;5.15;1.90;;;;;;;8.56;nan;99814.97;5018323;23;20550;-82
2023/01/14 06:55:44;;;;;;;4.63;1.55;;;;;;;8.52;nan;99805.59;5029849;28;20196;-82
2023/01/14 06:58:34;;;;;;;3.83;2.22;;;;;;;8.51;nan;99798.69;5047585;28;20181;-82
2023/01/14 07:09:08;;;;;;;1.98;1.70;;;;;;;8.47;nan;99795.34;4872848;29;20212;-82
2023/01/14 07:12:42;;;;;;;;;;;;;;;;;;;;;
2023/01/14 07:23:27;;;;;;;5.30;2.40;;;;;;;8.39;nan;99803.59;4867025;29;20225;-83
2023/01/14 07:25:55;;;;;;;7.72;3.42;;;;;;;8.43;nan;99800.84;5016621;23;20252;-82
2023/01/14 07:28:22;;;;;;;5.13;1.90;;;;;;;8.47;nan;99794.50;5000348;28;20653;-83
2023/01/14 07:30:48;;;;;;;3.47;2.00;;;;;;;8.51;nan;99791.66;5010526;28;20188;-82
2023/01/14 07:33:13;;;;;;;3.73;1.70;;;;;;;8.56;nan;99786.16;5009594;28;20209;-82
2023/01/14 07:35:39;;;;;;;6.93;2.03;;;;;;;8.61;nan;99794.63;5009084;28;20347;-82
2023/01/14 07:38:04;;;;;;;1.73;1.23;;;;;;;8.67;nan;99778.63;5006982;28;20189;-82
2023/01/14 07:40:30;;;;;;;3.37;1.03;;;;;;;8.74;nan;99784.34;4991977;28;20799;-82
2023/01/14 07:42:59;;;;;;;5.30;1.30;;;;;;;8.81;nan;99778.72;4997395;28;20213;-82
2023/01/14 07:45:26;;;;;;;2.85;1.10;;;;;;;8.89;nan;99783.53;4989230;28;20201;-82
2023/01/14 07:47:52;;;;;;;3.72;1.50;;;;;;;8.98;nan;99776.97;4987846;28;20667;-82
2023/01/14 07:50:19;;;;;;;2.30;1.07;;;;;;;9.04;nan;99774.84;4990084;28;20189;-82
2023/01/14 07:52:55;;;;;;;2.80;1.50;;;;;;;9.10;nan;99776.31;4989596;28;20185;-82
2023/01/14 07:55:20;;;;;;;4.00;1.35;;;;;;;9.14;nan;99766.50;4988530;28;20212;-82
2023/01/14 07:57:46;;;;;;;4.63;1.67;;;;;;;9.17;nan;99756.66;4989164;28;20306;-82
2023/01/14 08:00:13;;;;;;;3.20;1.20;;;;;;;9.21;nan;99755.59;4991907;28;20188;-81
2023/01/14 08:02:38;;;;;;;1.33;1.00;;;;;;;9.26;nan;99752.69;4990572;28;20962;-82
2023/01/14 08:05:04;;;;;;;2.07;1.30;;;;;;;9.30;nan;99741.94;4989421;28;20205;-82
2023/01/14 08:07:29;;;;;;;6.10;1.50;;;;;;;9.37;nan;99737.22;4989786;28;20317;-82
2023/01/14 08:09:55;;;;;;;1.93;1.57;;;;;;;9.43;nan;99729.00;4987724;28;20189;-82
2023/01/14 08:12:20;;;;;;;2.80;1.50;;;;;;;9.49;nan;99720.78;4990463;28;20567;-82
2023/01/14 08:14:45;;;;;;;4.07;1.60;;;;;;;9.59;nan;99715.03;4991166;28;20292;-82
2023/01/14 08:17:11;;;;;;;1.93;1.03;;;;;;;9.63;nan;99717.34;4985248;28;20209;-83
2023/01/14 08:19:36;;;;;;;2.80;1.20;;;;;;;9.73;nan;99715.91;4985093;28;20197;-82
2023/01/14 08:22:01;;;;;;;3.33;1.37;;;;;;;9.81;nan;99704.97;4989173;28;20188;-81
2023/01/14 08:24:27;;;;;;;2.50;0.80;;;;;;;9.87;nan;99707.22;4988778;28;20287;-82
2023/01/14 08:26:52;;;;;;;3.73;1.10;;;;;;;9.93;nan;99700.75;4987892;28;20205;-83
2023/01/14 08:29:17;;;;;;;1.63;1.00;;;;;;;10.01;nan;99698.50;4987914;28;20667;-82
2023/01/14 08:31:43;;;;;;;1.97;0.90;;;;;;;10.07;nan;99690.28;4996307;28;20278;-82
2023/01/14 08:34:09;;;;;;;1.85;1.10;;;;;;;10.16;nan;99681.84;5008344;28;20770;-82
2023/01/14 08:36:35;;;;;;;1.50;1.00;;;;;;;10.27;nan;99690.88;5010206;28;21006;-83
2023/01/14 08:39:00;;;;;;;1.50;1.30;;;;;;;10.35;nan;99678.13;4996041;28;20212;-83
2023/01/14 08:41:25;;;;;;;1.07;0.97;;;;;;;10.43;nan;99669.78;4989441;28;20566;-83
2023/01/14 08:43:51;;;;;;;1.73;1.40;;;;;;;10.46;nan;99680.94;4969990;28;20234;-83
2023/01/14 08:46:18;;;;;;;1.97;1.10;;;;;;;10.52;nan;99671.84;4989539;28;20291;-83
2023/01/14 08:48:44;;;;;;;1.75;1.00;;;;;;;10.54;nan;99680.47;4989663;28;20471;-83
2023/01/14 08:51:11;;;;;;;1.63;0.97;;;;;;;10.56;nan;99678.59;4987750;28;20193;-83
2023/01/14 08:53:38;;;;;;;2.55;1.10;;;;;;;10.57;nan;99686.38;4986473;28;20410;-84
2023/01/14 08:56:05;;;;;;;1.25;1.00;;;;;;;10.59;nan;99694.16;5006443;28;20188;-83
2023/01/14 08:58:31;;;;;;;4.70;1.10;;;;;;;10.63;nan;99693.00;4991366;28;20595;-82
2023/01/14 09:01:03;;;;;;;8.13;1.30;;;;;;;10.72;nan;99686.34;4982326;28;20200;-83
2023/01/14 09:03:30;;;;;;;0.95;0.80;;;;;;;10.79;nan;99675.34;5002427;28;20231;-83
2023/01/14 09:06:00;;;;;;;4.30;1.08;;;;;;;10.87;nan;99680.13;4993786;28;20775;-82
2023/01/14 09:17:05;;;;;;;5.03;2.15;;;;;;;11.00;nan;99677.56;4985147;28;20471;-83
2023/01/14 09:19:33;;;;;;;1.00;0.80;;;;;;;10.98;nan;99671.56;4971612;28;20255;-82
2023/01/14 09:21:58;;;;;;;0.85;0.80;;;;;;;10.95;nan;99655.97;5004925;28;20655;-83
2023/01/14 09:24:24;;;;;;;0.97;0.87;;;;;;;10.93;nan;99652.59;5013914;28;20197;-83
2023/01/14 09:26:49;;;;;;;1.33;1.00;;;;;;;10.90;nan;99631.78;5010814;28;20233;-82
2023/01/14 09:29:15;;;;;;;1.57;1.03;;;;;;;10.89;nan;99644.09;4989299;28;20222;-83
2023/01/14 09:31:40;;;;;;;1.93;1.13;;;;;;;10.89;nan;99640.63;5003881;28;20180;-82
2023/01/14 09:34:06;;;;;;;1.00;0.90;;;;;;;10.90;nan;99642.28;4985085;28;20189;-82
2023/01/14 09:36:31;;;;;;;3.70;1.13;;;;;;;10.92;nan;99645.69;4990067;28;20180;-82
2023/01/14 09:38:57;;;;;;;2.43;1.17;;;;;;;10.94;nan;99639.38;4988162;28;20203;-81
2023/01/14 09:41:27;;;;;;;2.90;2.13;;;;;;;10.98;nan;99634.75;4987444;28;20181;-82
2023/01/14 09:43:53;;;;;;;2.67;1.08;;;;;;;11.02;nan;99641.50;4986838;28;20197;-83
2023/01/14 09:46:24;;;;;;;2.55;1.27;;;;;;;11.05;nan;99641.31;4984919;28;20240;-83
2023/01/14 09:48:51;;;;;;;1.58;1.00;;;;;;;11.03;nan;99627.41;4985539;28;20189;-82
2023/01/14 09:51:30;;;;;;;2.30;1.10;;;;;;;11.06;nan;99619.31;4983781;28;20231;-82
2023/01/14 09:54:21;;;;;;;1.45;1.35;;;;;;;11.05;nan;99617.66;4986748;28;20224;-80
2023/01/14 09:57:07;;;;;;;1.38;0.80;;;;;;;11.03;nan;99611.66;4976900;28;20739;-82
2023/01/14 09:59:38;;;;;;;1.48;1.00;;;;;;;11.01;nan;99603.00;4979048;28;20185;-83
2023/01/14 10:02:12;;;;;;;1.65;1.08;;;;;;;11.00;nan;99611.84;4995106;28;20669;-83
2023/01/14 10:04:52;;;;;;;1.92;1.42;;;;;;;11.01;nan;99618.78;5004491;28;20204;-82
2023/01/14 10:07:20;;;;;;;1.63;1.05;;;;;;;11.04;nan;99602.81;4991573;28;20249;-82
2023/01/14 10:09:57;;;;;;;0.90;0.80;;;;;;;11.06;nan;99611.44;4985907;28;20276;-82
2023/01/14 10:12:30;;;;;;;3.15;1.70;;;;;;;11.07;nan;99594.72;4985448;28;20205;-81
2023/01/14 10:15:17;;;;;;;2.03;1.30;;;;;;;11.12;nan;99597.88;4986908;28;20648;-82
2023/01/14 10:17:50;;;;;;;3.53;1.00;;;;;;;11.12;nan;99592.63;4982801;28;20197;-82
2023/01/14 10:20:26;;;;;;;2.63;1.55;;;;;;;11.15;nan;99579.31;4990477;28;20290;-81
2023/01/14 10:23:02;;;;;;;1.27;1.10;;;;;;;11.19;nan;99569.41;4987413;28;20211;-81
2023/01/14 10:25:28;;;;;;;3.08;0.90;;;;;;;11.23;nan;99560.38;4976523;28;20244;-83
2023/01/14 10:27:56;;;;;;;1.70;1.20;;;;;;;11.28;nan;99548.59;4951651;28;20544;-82
2023/01/14 10:30:30;;;;;;;2.28;1.40;;;;;;;11.33;nan;99542.19;4985929;28;20202;-83
2023/01/14 10:32:58;;;;;;;2.65;0.90;;;;;;;11.38;nan;99540.94;4969432;28;20723;-83
2023/01/14 10:35:39;;;;;;;2.42;1.10;;;;;;;11.42;nan;99531.91;4982772;28;20209;-83
2023/01/14 10:38:04;;;;;;;1.45;1.15;;;;;;;11.46;nan;99514.94;4961830;28;20193;-82
2023/01/14 10:40:32;;;;;;;1.43;1.33;;;;;;;11.53;nan;99507.50;4986449;28;20193;-81
2023/01/14 10:43:00;;;;;;;1.08;1.00;;;;;;;11.55;nan;99513.47;4992542;28;20223;-82
2023/01/14 10:45:26;;;;;;;3.70;0.85;;;;;;;11.58;nan;99520.31;5009449;28;20206;-83
2023/01/14 10:47:56;;;;;;;1.43;1.00;;;;;;;11.62;nan;99508.63;5010684;28;20254;-82
2023/01/14 10:50:24;;;;;;;2.00;1.30;;;;;;;11.66;nan;99500.41;5016333;28;20258;-82
2023/01/14 10:52:52;;;;;;;1.48;1.20;;;;;;;11.69;nan;99481.81;5016553;28;20299;-82
2023/01/14 10:55:22;;;;;;;2.28;0.95;;;;;;;11.73;nan;99496.41;5010959;28;20242;-82
2023/01/14 10:57:53;;;;;;;1.55;0.85;;;;;;;11.76;nan;99499.78;5010168;28;20192;-81
2023/01/14 11:00:35;;;;;;;1.23;1.10;;;;;;;11.76;nan;99494.53;5002608;28;20207;-82
2023/01/14 11:03:03;;;;;;;2.92;1.00;;;;;;;11.78;nan;99490.81;5014011;28;20180;-83
2023/01/14 11:05:34;;;;;;;2.55;1.23;;;;;;;11.82;nan;99476.50;4995607;28;20228;-83
2023/01/14 11:08:17;;;;;;;3.67;1.33;;;;;;;11.88;nan;99469.97;5009462;28;20247;-78
2023/01/14 11:10:43;;;;;;;2.25;1.00;;;;;;;11.95;nan;99458.06;5009041;28;20250;-82
2023/01/14 11:13:29;;;;;;;2.20;1.30;;;;;;;12.00;nan;99453.31;4998696;28;20202;-83
2023/01/14 11:15:54;;;;;;;5.75;1.40;;;;;;;12.04;nan;99452.13;5029728;28;20206;-83
2023/01/14 11:18:26;;;;;;;2.50;1.27;;;;;;;12.05;nan;99439.84;5022929;28;20191;-82
2023/01/14 11:21:00;;;;;;;1.20;1.10;;;;;;;12.07;nan;99430.00;5022043;28;20187;-82
2023/01/14 11:23:29;;;;;;;1.08;0.80;;;;;;;12.09;nan;99407.88;5022238;28;20194;-82
2023/01/14 11:26:04;;;;;;;2.65;0.90;;;;;;;12.11;nan;99403.34;5005910;28;20742;-82
2023/01/14 11:28:29;;;;;;;1.48;0.77;;;;;;;12.10;nan;99399.06;5002516;28;20175;-82
2023/01/14 11:30:56;;;;;;;0.60;0.60;;;;;;;12.12;nan;99386.63;5018222;28;20555;-83
2023/01/14 11:33:25;;;;;;;1.60;0.80;;;;;;;12.13;nan;99376.94;5007288;28;20675;-82
2023/01/14 11:35:54;;;;;;;1.17;0.70;;;;;;;12.10;nan;99380.63;5029359;28;20568;-82
2023/01/14 11:38:21;;;;;;;1.02;0.93;;;;;;;12.12;nan;99370.81;5022686;28;20274;-82
2023/01/14 11:44:01;;;;;;;1.95;1.13;;;;;;;12.12;nan;99357.66;5007918;28;20287;-82
2023/01/14 11:46:33;;;;;;;1.40;0.80;;;;;;;12.10;nan;99351.66;4992745;28;20777;-83
2023/01/14 11:49:19;;;;;;;1.00;0.80;;;;;;;12.11;nan;99342.81;4992007;28;20188;-82
2023/01/14 11:52:03;;;;;;;2.42;0.90;;;;;;;12.07;nan;99354.53;4974249;28;20188;-82
2023/01/14 11:54:38;;;;;;;3.95;0.90;;;;;;;12.06;nan;99334.41;4994900;28;20207;-82
2023/01/14 11:57:04;;;;;;;1.85;1.00;;;;;;;12.01;nan;99323.38;5009851;28;20175;-82
2023/01/14 11:59:33;;;;;;;4.32;1.42;;;;;;;12.00;nan;99318.25;5000511;28;20223;-83
2023/01/14 12:02:37;;;;;;;1.23;1.13;;;;;;;12.01;nan;99315.47;5009157;28;20591;-82
2023/01/14 12:05:11;;;;;;;1.67;1.08;;;;;;;11.99;nan;99311.28;5012293;28;20230;-82
2023/01/14 12:07:43;;;;;;;1.52;1.10;;;;;;;11.94;nan;99303.75;5011392;28;20534;-83
2023/01/14 12:10:32;;;;;;;3.95;1.00;;;;;;;11.90;nan;99299.66;4997550;28;20267;-82
2023/01/14 12:19:03;;;;;;;1.90;1.00;;;;;;;11.79;nan;99291.66;5020733;28;20191;-83
2023/01/14 12:21:38;;;;;;;1.48;1.00;;;;;;;11.77;nan;99290.94;5028018;28;20275;-81
2023/01/14 12:24:17;;;;;;;1.25;0.80;;;;;;;11.74;nan;99292.84;5030777;28;20178;-82
2023/01/14 12:26:45;;;;;;;1.33;1.00;;;;;;;11.74;nan;99284.09;5017157;28;20199;-82
2023/01/14 12:29:16;;;;;;;1.75;0.90;;;;;;;11.77;nan;99275.16;5013576;28;20303;-82
2023/01/14 12:31:52;;;;;;;1.08;0.90;;;;;;;11.76;nan;99265.59;5031826;28;20554;-83
2023/01/14 12:34:28;;;;;;;2.65;0.90;;;;;;;11.76;nan;99269.06;5015015;28;20659;-82
2023/01/14 12:37:08;;;;;;;2.45;1.10;;;;;;;11.75;nan;99262.13;5029246;28;20406;-82
2023/01/14 12:48:06;;;;;;;2.30;1.42;;;;;;;11.81;nan;99235.34;4969181;28;20705;-82
2023/01/14 12:50:33;;;;;;;2.85;1.10;;;;;;;11.86;nan;99240.31;4978031;28;20219;-83
2023/01/14 12:52:59;;;;;;;2.28;1.92;;;;;;;11.88;nan;99233.97;4987598;28;20261;-83
2023/01/14 12:55:27;;;;;;;1.13;0.80;;;;;;;11.88;nan;99233.13;4968810;28;20299;-83
2023/01/14 12:57:54;;;;;;;1.35;1.10;;;;;;;11.89;nan;99213.75;4969556;28;20189;-83
2023/01/14 13:00:29;;;;;;;1.05;0.90;;;;;;;11.86;nan;99200.84;4974632;28;20237;-82
2023/01/14 13:03:03;;;;;;;2.05;1.33;;;;;;;11.91;nan;99217.13;4985795;28;20195;-82
2023/01/14 13:05:53;;;;;;;1.42;0.90;;;;;;;11.86;nan;99201.66;4981622;28;20279;-83
2023/01/14 13:08:25;;;;;;;1.75;0.90;;;;;;;11.87;nan;99191.97;4964856;29;20213;-82
2023/01/14 13:11:01;;;;;;;4.97;1.90;;;;;;;11.89;nan;99195.34;4965711;28;20180;-84
2023/01/14 13:13:28;;;;;;;1.60;1.50;;;;;;;11.86;nan;99183.25;4992729;28;20212;-84
2023/01/14 13:15:57;;;;;;;3.08;1.38;;;;;;;11.89;nan;99179.53;4977552;28;20208;-83
2023/01/14 13:18:34;;;;;;;9.65;3.03;;;;;;;11.93;nan;99188.88;4981612;28;20207;-83
2023/01/14 13:21:05;;;;;;;21.88;11.32;;;;;;;11.94;nan;99182.66;4961400;28;20242;-82
2023/01/14 13:23:50;;;;;;;2.42;2.20;;;;;;;11.93;nan;99180.97;4977547;28;20878;-86
2023/01/14 13:26:28;;;;;;;3.35;2.35;;;;;;;11.93;nan;99183.59;4985535;28;20223;-85
2023/01/14 13:29:15;;;;;;;3.38;1.40;;;;;;;11.88;nan;99168.19;4978927;28;20270;-83
2023/01/14 13:31:41;;;;;;;4.60;2.15;;;;;;;11.89;nan;99169.84;4977895;28;20176;-85
2023/01/14 13:34:22;;;;;;;8.32;6.22;;;;;;;11.91;nan;99173.22;4981987;28;20185;-83
2023/01/14 13:37:00;;;;;;;3.05;2.08;;;;;;;11.97;nan;99161.38;4996991;28;20196;-83
2023/01/14 13:39:27;;;;;;;4.45;1.85;;;;;;;11.96;nan;99154.41;4973390;28;20254;-83
2023/01/14 13:41:57;;;;;;;7.13;3.80;;;;;;;11.98;nan;99162.22;4985812;28;20480;-83
2023/01/14 13:44:28;;;;;;;6.50;3.40;;;;;;;12.01;nan;99169.88;4972953;28;20196;-83
2023/01/14 13:47:05;;;;;;;4.45;1.85;;;;;;;12.05;nan;99158.16;4966506;28;20405;-83
